Time;durP1;ratioP1;P1;durP2;ratioP2;P2;SDS_P1;SDS_P2;PMS_P1;PMS_P2;Temp;Humidity;BMP_temperature;BMP_pressure;BME280_temperature;BME280_humidity;BME280_pressure;Samples;Min_cycle;Max_cycle;Signal;HPM_P1;HPM_P2
2023/06/20 00:01:55;;;;;;;17.73;13.52;;;23.30;64.10;;;;;;5007625;28;20030;-47
2023/06/20 00:04:21;;;;;;;15.43;12.60;;;23.30;64.10;;;;;;5004248;28;20038;-50
2023/06/20 00:06:46;;;;;;;15.25;12.40;;;23.40;64.20;;;;;;5006565;28;20472;-46
2023/06/20 00:09:12;;;;;;;14.80;12.70;;;23.30;64.10;;;;;;5004975;28;20208;-45
2023/06/20 00:11:38;;;;;;;16.15;13.50;;;23.40;64.10;;;;;;5006672;28;20045;-46
2023/06/20 00:14:07;;;;;;;15.48;12.30;;;23.30;64.10;;;;;;5006257;28;20054;-44
2023/06/20 00:16:33;;;;;;;16.57;12.63;;;23.30;63.70;;;;;;4998998;28;20543;-50
2023/06/20 00:18:58;;;;;;;15.93;12.70;;;23.30;64.10;;;;;;4991927;28;20276;-46
2023/06/20 00:21:25;;;;;;;17.08;12.68;;;23.30;64.10;;;;;;5008120;28;20076;-45
2023/06/20 00:23:52;;;;;;;15.50;12.98;;;23.40;64.10;;;;;;5008802;28;20034;-48
2023/06/20 00:26:19;;;;;;;16.67;13.05;;;23.30;64.60;;;;;;5009980;28;20033;-46
2023/06/20 00:28:45;;;;;;;15.27;12.27;;;23.40;64.60;;;;;;5014070;28;20033;-51
2023/06/20 00:31:11;;;;;;;15.98;12.45;;;23.40;63.90;;;;;;5013891;28;20034;-50
2023/06/20 00:33:37;;;;;;;15.73;12.93;;;23.40;64.00;;;;;;4992835;28;20030;-49
2023/06/20 00:36:05;;;;;;;16.27;12.85;;;23.40;63.70;;;;;;5008120;28;20022;-52
2023/06/20 00:38:30;;;;;;;16.60;12.52;;;23.40;63.80;;;;;;5006815;28;20508;-47
2023/06/20 00:40:56;;;;;;;18.65;12.60;;;23.40;63.90;;;;;;4990208;28;20030;-45
2023/06/20 00:43:22;;;;;;;21.42;12.43;;;23.30;63.70;;;;;;5004800;28;20404;-50
2023/06/20 00:45:48;;;;;;;15.07;12.27;;;23.40;63.90;;;;;;5007760;28;20041;-50
2023/06/20 00:48:14;;;;;;;18.23;12.50;;;23.30;63.90;;;;;;5015191;28;20370;-48
2023/06/20 00:50:41;;;;;;;15.40;12.02;;;23.40;64.00;;;;;;5010335;28;20091;-48
2023/06/20 00:53:07;;;;;;;17.77;11.82;;;23.30;63.90;;;;;;5010942;28;20124;-50
2023/06/20 00:55:34;;;;;;;14.45;11.73;;;23.40;64.00;;;;;;5000140;28;20301;-47
2023/06/20 00:58:02;;;;;;;14.02;12.07;;;23.40;64.00;;;;;;5009376;28;20022;-49
2023/06/20 01:00:32;;;;;;;15.57;12.25;;;23.40;63.90;;;;;;5008782;28;20037;-48
2023/06/20 01:03:11;;;;;;;15.68;11.95;;;23.40;63.90;;;;;;5009178;28;20090;-48
2023/06/20 01:05:38;;;;;;;15.68;11.82;;;23.40;63.90;;;;;;5007261;28;20041;-48
2023/06/20 01:08:36;;;;;;;13.98;11.45;;;23.40;63.80;;;;;;5003926;28;20477;-47
2023/06/20 01:11:28;;;;;;;14.63;11.75;;;23.40;63.80;;;;;;4959714;28;20035;-47
2023/06/20 01:14:07;;;;;;;13.30;10.95;;;23.40;63.90;;;;;;4947221;28;20497;-53
2023/06/20 01:16:57;;;;;;;15.48;11.60;;;23.40;63.70;;;;;;4972631;28;20042;-57
2023/06/20 01:19:50;;;;;;;15.10;11.70;;;23.40;63.70;;;;;;4955058;28;20490;-58
2023/06/20 01:22:34;;;;;;;18.88;11.93;;;23.40;63.70;;;;;;4964708;28;20727;-56
2023/06/20 01:25:05;;;;;;;18.85;11.77;;;23.40;63.30;;;;;;4954671;28;20039;-54
2023/06/20 01:27:56;;;;;;;16.08;11.68;;;23.40;63.40;;;;;;4957024;28;20043;-55
2023/06/20 01:30:31;;;;;;;15.95;11.60;;;23.40;63.50;;;;;;4958154;28;20703;-53
2023/06/20 01:33:02;;;;;;;15.30;11.63;;;23.40;63.60;;;;;;4949505;28;20103;-52
2023/06/20 01:35:32;;;;;;;14.93;11.27;;;23.30;63.60;;;;;;4955235;28;20475;-55
2023/06/20 01:38:01;;;;;;;18.25;11.73;;;23.30;63.70;;;;;;4959501;28;20031;-55
2023/06/20 01:40:29;;;;;;;19.33;12.27;;;23.30;63.70;;;;;;4961199;28;20035;-54
2023/06/20 01:42:58;;;;;;;18.65;11.63;;;23.30;63.70;;;;;;4955973;28;20039;-55
2023/06/20 01:45:27;;;;;;;19.70;11.63;;;23.30;63.80;;;;;;4949752;28;20046;-52
2023/06/20 01:47:58;;;;;;;16.23;12.35;;;23.30;63.60;;;;;;4987762;28;20552;-53
2023/06/20 01:50:27;;;;;;;19.95;11.77;;;23.30;63.70;;;;;;4990894;28;20124;-54
2023/06/20 01:52:54;;;;;;;19.77;11.85;;;23.30;63.80;;;;;;5009049;28;20644;-55
2023/06/20 01:55:21;;;;;;;15.88;11.93;;;23.30;64.00;;;;;;5009015;28;20026;-56
2023/06/20 01:57:49;;;;;;;15.70;11.38;;;23.30;63.80;;;;;;4991339;28;20370;-57
2023/06/20 02:00:16;;;;;;;15.15;11.57;;;23.30;63.70;;;;;;4990925;28;20029;-57
2023/06/20 02:02:45;;;;;;;19.05;12.00;;;23.30;64.10;;;;;;4991214;28;20489;-53
2023/06/20 02:05:12;;;;;;;17.52;11.70;;;23.30;64.00;;;;;;5008527;28;20034;-56
2023/06/20 02:07:41;;;;;;;16.67;11.73;;;23.30;63.80;;;;;;4990622;28;20030;-54
2023/06/20 02:10:08;;;;;;;17.88;11.38;;;23.30;64.10;;;;;;5007690;28;20548;-55
2023/06/20 02:12:36;;;;;;;20.85;11.90;;;23.30;64.00;;;;;;5008595;28;20038;-55
2023/06/20 02:15:04;;;;;;;18.88;11.13;;;23.30;64.10;;;;;;4991100;28;20463;-52
2023/06/20 02:17:32;;;;;;;16.88;11.25;;;23.30;63.90;;;;;;4991092;28;20022;-54
2023/06/20 02:19:58;;;;;;;14.88;11.23;;;23.30;63.90;;;;;;4990367;28;20064;-55
2023/06/20 02:22:26;;;;;;;17.88;10.82;;;23.30;64.00;;;;;;5008295;28;20025;-50
2023/06/20 02:24:54;;;;;;;15.52;11.65;;;23.30;63.80;;;;;;4990610;28;20026;-53
2023/06/20 02:27:21;;;;;;;15.38;10.98;;;23.30;63.90;;;;;;4990861;28;20045;-55
2023/06/20 02:29:51;;;;;;;15.18;11.60;;;23.30;63.70;;;;;;5007730;28;20516;-56
2023/06/20 02:32:18;;;;;;;15.13;11.15;;;23.30;64.00;;;;;;5008249;28;20025;-57
2023/06/20 02:34:48;;;;;;;16.30;10.90;;;23.30;64.00;;;;;;5008165;28;20030;-57
2023/06/20 02:37:14;;;;;;;14.75;11.55;;;23.30;64.00;;;;;;5008252;28;20022;-57
2023/06/20 02:39:40;;;;;;;16.63;11.02;;;23.30;63.90;;;;;;5007279;28;20340;-55
2023/06/20 02:42:06;;;;;;;18.50;11.38;;;23.30;63.70;;;;;;5008193;28;20033;-57
2023/06/20 02:44:32;;;;;;;15.25;11.27;;;23.30;63.60;;;;;;4984653;28;20030;-56
2023/06/20 02:47:08;;;;;;;12.98;10.68;;;23.30;64.00;;;;;;5000100;28;20108;-54
2023/06/20 02:49:49;;;;;;;16.23;11.35;;;23.30;64.00;;;;;;4993887;28;20037;-52
2023/06/20 02:52:35;;;;;;;18.23;11.65;;;23.30;64.00;;;;;;5003130;28;20089;-55
2023/06/20 02:55:12;;;;;;;16.30;11.23;;;23.30;63.60;;;;;;4990839;28;20022;-57
2023/06/20 02:57:46;;;;;;;13.35;10.75;;;23.30;64.00;;;;;;4989469;28;20030;-57
2023/06/20 03:00:13;;;;;;;14.52;10.30;;;23.30;64.10;;;;;;4990510;28;20509;-55
2023/06/20 03:02:44;;;;;;;13.43;10.50;;;23.30;63.90;;;;;;4990531;28;20062;-57
2023/06/20 03:05:13;;;;;;;16.75;10.98;;;23.30;63.90;;;;;;4988210;28;20030;-54
2023/06/20 03:07:41;;;;;;;14.10;11.15;;;23.30;64.00;;;;;;4986710;28;20030;-54
2023/06/20 03:10:09;;;;;;;14.13;11.50;;;23.30;63.90;;;;;;4983337;28;20025;-55
2023/06/20 03:12:36;;;;;;;16.40;11.27;;;23.30;64.00;;;;;;4987217;28;20485;-54
2023/06/20 03:15:03;;;;;;;13.77;10.85;;;23.30;63.70;;;;;;5002959;28;20036;-56
2023/06/20 03:17:35;;;;;;;15.35;11.55;;;23.30;63.70;;;;;;4988402;28;20481;-56
2023/06/20 03:20:04;;;;;;;14.52;10.73;;;23.20;63.70;;;;;;4998521;28;20119;-54
2023/06/20 03:22:31;;;;;;;17.55;10.35;;;23.30;63.60;;;;;;4974570;28;20116;-53
2023/06/20 03:24:56;;;;;;;16.20;10.73;;;23.30;63.90;;;;;;4993256;28;20449;-53
2023/06/20 03:27:22;;;;;;;18.38;11.38;;;23.30;63.80;;;;;;4985413;28;20033;-53
2023/06/20 03:29:48;;;;;;;19.77;11.25;;;23.30;64.10;;;;;;4989326;28;20091;-54
2023/06/20 03:32:14;;;;;;;18.48;10.60;;;23.30;64.00;;;;;;4988602;28;20022;-54
2023/06/20 03:34:40;;;;;;;13.35;10.30;;;23.20;64.00;;;;;;4988865;28;20039;-49
2023/06/20 03:37:07;;;;;;;15.07;11.38;;;23.30;64.10;;;;;;4999661;28;20030;-54
2023/06/20 03:39:33;;;;;;;19.35;11.00;;;23.30;63.90;;;;;;4987160;28;20033;-54
2023/06/20 03:41:59;;;;;;;14.98;10.70;;;23.20;64.10;;;;;;5002061;28;20490;-50
2023/06/20 03:44:26;;;;;;;14.27;10.30;;;23.30;64.10;;;;;;4984759;28;20087;-51
2023/06/20 03:46:51;;;;;;;14.32;10.57;;;23.30;64.20;;;;;;4971486;28;20026;-52
2023/06/20 03:49:18;;;;;;;14.23;10.57;;;23.20;63.80;;;;;;4984134;28;20057;-53
2023/06/20 03:51:44;;;;;;;14.35;10.05;;;23.20;63.80;;;;;;4994424;28;20026;-53
2023/06/20 03:54:11;;;;;;;13.57;10.38;;;23.20;64.00;;;;;;5003818;28;20494;-56
2023/06/20 03:56:37;;;;;;;12.68;10.52;;;23.30;63.90;;;;;;4990658;28;20038;-54
2023/06/20 03:59:03;;;;;;;13.07;10.90;;;23.30;64.00;;;;;;4992386;28;20666;-55
2023/06/20 04:01:29;;;;;;;14.90;11.18;;;23.30;63.80;;;;;;4988240;28;20057;-53
2023/06/20 04:03:55;;;;;;;13.95;10.50;;;23.30;63.90;;;;;;4998940;28;20154;-55
2023/06/20 04:06:29;;;;;;;12.15;10.50;;;23.30;63.90;;;;;;4981274;28;20034;-51
2023/06/20 04:08:57;;;;;;;14.40;10.65;;;23.30;64.00;;;;;;5008373;28;20034;-55
2023/06/20 04:11:24;;;;;;;13.60;11.07;;;23.30;64.00;;;;;;5001444;28;20027;-49
2023/06/20 04:13:50;;;;;;;13.25;10.25;;;23.30;63.60;;;;;;4991982;28;20452;-50
2023/06/20 04:16:16;;;;;;;14.80;10.25;;;23.30;64.30;;;;;;4988266;28;20132;-50
2023/06/20 04:18:41;;;;;;;16.88;10.57;;;23.30;63.80;;;;;;4992719;28;20398;-52
2023/06/20 04:21:07;;;;;;;12.95;10.50;;;23.30;63.80;;;;;;4996956;28;20030;-50
2023/06/20 04:23:34;;;;;;;13.82;10.55;;;23.30;64.00;;;;;;4990760;28;20033;-52
2023/06/20 04:26:01;;;;;;;13.98;10.35;;;23.30;63.60;;;;;;4992849;28;20030;-50
2023/06/20 04:28:27;;;;;;;13.73;10.65;;;23.30;63.90;;;;;;4992880;28;20418;-56
2023/06/20 04:31:00;;;;;;;13.27;10.25;;;23.30;64.40;;;;;;5001452;28;20034;-55
2023/06/20 04:33:26;;;;;;;13.13;10.30;;;23.30;64.00;;;;;;4992887;28;20037;-53
2023/06/20 04:35:57;;;;;;;13.88;10.65;;;23.30;63.80;;;;;;4986199;28;20042;-51
2023/06/20 04:38:26;;;;;;;13.82;10.85;;;23.30;64.40;;;;;;4973734;28;20038;-49
2023/06/20 04:40:52;;;;;;;12.80;10.73;;;23.30;64.30;;;;;;4995317;28;20615;-50
2023/06/20 04:43:18;;;;;;;13.95;11.15;;;23.30;64.20;;;;;;5001152;28;20441;-51
2023/06/20 04:45:44;;;;;;;13.70;10.38;;;23.30;64.20;;;;;;4990029;28;20030;-54
2023/06/20 04:48:09;;;;;;;13.35;10.65;;;23.30;64.50;;;;;;4976623;28;20445;-55
2023/06/20 04:50:36;;;;;;;13.68;10.38;;;23.30;63.90;;;;;;5009675;28;20401;-52
2023/06/20 04:53:03;;;;;;;14.63;10.32;;;23.30;64.30;;;;;;4992616;28;20029;-55
2023/06/20 04:55:29;;;;;;;14.23;10.57;;;23.30;64.30;;;;;;5009753;28;20113;-56
2023/06/20 04:57:56;;;;;;;14.13;10.90;;;23.30;63.80;;;;;;4992116;28;20034;-54
2023/06/20 05:00:22;;;;;;;15.93;10.55;;;23.30;64.10;;;;;;4992057;28;20537;-54
2023/06/20 05:02:48;;;;;;;13.63;10.65;;;23.30;64.30;;;;;;4981299;28;20041;-56
2023/06/20 05:05:15;;;;;;;14.15;10.90;;;23.30;63.80;;;;;;5003528;28;20029;-49
2023/06/20 05:07:44;;;;;;;13.70;10.35;;;23.30;64.10;;;;;;5008280;28;20060;-54
2023/06/20 05:10:10;;;;;;;13.45;10.75;;;23.30;64.40;;;;;;4991620;28;20029;-55
2023/06/20 05:12:36;;;;;;;13.77;10.35;;;23.30;64.30;;;;;;5009368;28;20095;-56
2023/06/20 05:15:02;;;;;;;13.80;10.80;;;23.30;64.20;;;;;;5009784;28;20030;-56
2023/06/20 05:17:30;;;;;;;17.38;11.40;;;23.30;63.80;;;;;;5009347;28;20120;-52
2023/06/20 05:19:56;;;;;;;16.98;10.00;;;23.30;63.90;;;;;;5009373;28;20126;-55
2023/06/20 05:22:21;;;;;;;19.80;11.32;;;23.30;64.20;;;;;;5009799;28;20026;-54
2023/06/20 05:24:47;;;;;;;13.65;9.93;;;23.30;64.10;;;;;;5009499;28;20064;-52
2023/06/20 05:27:13;;;;;;;15.38;10.15;;;23.30;63.90;;;;;;5009753;28;20034;-53
2023/06/20 05:29:39;;;;;;;13.85;10.02;;;23.30;63.90;;;;;;5009066;28;20640;-56
2023/06/20 05:32:06;;;;;;;13.50;10.30;;;23.30;64.10;;;;;;5009213;28;20030;-54
2023/06/20 05:34:32;;;;;;;14.05;10.30;;;23.30;63.70;;;;;;5009363;28;20026;-54
2023/06/20 05:36:58;;;;;;;13.10;9.95;;;23.30;63.90;;;;;;4991619;28;20045;-57
2023/06/20 05:39:24;;;;;;;14.15;10.75;;;23.30;63.80;;;;;;5009686;28;20034;-52
2023/06/20 05:41:49;;;;;;;14.07;10.23;;;23.30;64.30;;;;;;5008681;28;20026;-55
2023/06/20 05:44:15;;;;;;;16.38;10.35;;;23.30;64.30;;;;;;5008034;28;20092;-55
2023/06/20 05:46:41;;;;;;;14.57;10.73;;;23.30;63.70;;;;;;5008919;28;20075;-53
2023/06/20 05:49:10;;;;;;;15.57;10.45;;;23.30;64.00;;;;;;5009090;28;20497;-52
2023/06/20 05:51:36;;;;;;;16.80;10.93;;;23.30;64.20;;;;;;5008597;28;20083;-54
2023/06/20 05:54:02;;;;;;;14.95;10.88;;;23.30;63.80;;;;;;5008592;28;20033;-53
2023/06/20 05:56:28;;;;;;;13.02;10.80;;;23.30;63.80;;;;;;5008865;28;20026;-55
2023/06/20 05:58:53;;;;;;;14.13;10.23;;;23.30;63.80;;;;;;5008984;28;20026;-55
2023/06/20 06:01:19;;;;;;;17.70;10.80;;;23.30;64.20;;;;;;5007390;28;20401;-54
2023/06/20 06:03:47;;;;;;;14.18;10.60;;;23.30;64.30;;;;;;5009051;28;20026;-52
2023/06/20 06:06:13;;;;;;;12.30;10.82;;;23.30;64.20;;;;;;5008635;28;20030;-55
2023/06/20 06:08:40;;;;;;;13.18;9.95;;;23.30;63.70;;;;;;5008406;28;20034;-51
2023/06/20 06:11:07;;;;;;;14.77;10.75;;;23.30;63.80;;;;;;5008199;28;20056;-56
2023/06/20 06:13:33;;;;;;;16.58;10.95;;;23.30;63.90;;;;;;5007367;28;20117;-49
2023/06/20 06:15:59;;;;;;;16.88;10.60;;;23.30;64.10;;;;;;5007681;28;20316;-53
2023/06/20 06:18:25;;;;;;;14.05;10.65;;;23.30;64.10;;;;;;5008373;28;20030;-56
2023/06/20 06:20:51;;;;;;;13.43;10.93;;;23.30;64.20;;;;;;5007942;28;20065;-55
2023/06/20 06:23:17;;;;;;;14.55;10.30;;;23.30;63.80;;;;;;5008405;28;20033;-51
2023/06/20 06:25:44;;;;;;;15.48;11.00;;;23.30;64.20;;;;;;5008237;28;20041;-54
2023/06/20 06:28:10;;;;;;;13.60;10.40;;;23.30;64.20;;;;;;5008729;28;20109;-54
2023/06/20 06:30:36;;;;;;;12.93;10.27;;;23.30;63.90;;;;;;5007460;28;20026;-49
2023/06/20 06:33:02;;;;;;;20.52;10.77;;;23.30;64.10;;;;;;5001641;28;20026;-54
2023/06/20 06:35:30;;;;;;;12.50;10.35;;;23.30;63.80;;;;;;5008137;28;20032;-53
2023/06/20 06:37:57;;;;;;;14.60;10.68;;;23.30;64.30;;;;;;5008026;28;20698;-52
2023/06/20 06:40:23;;;;;;;14.73;10.05;;;23.30;64.00;;;;;;5007832;28;20022;-50
2023/06/20 06:42:49;;;;;;;13.35;10.88;;;23.30;64.00;;;;;;5007504;28;20029;-54
2023/06/20 06:45:15;;;;;;;13.20;10.50;;;23.30;64.10;;;;;;4990677;28;20389;-51
2023/06/20 06:47:41;;;;;;;14.40;11.13;;;23.30;64.30;;;;;;5007771;28;20050;-54
2023/06/20 06:50:07;;;;;;;15.00;9.98;;;23.30;64.40;;;;;;5007782;28;20073;-51
2023/06/20 06:52:34;;;;;;;13.77;10.63;;;23.30;64.20;;;;;;5007825;28;20022;-51
2023/06/20 06:55:00;;;;;;;15.93;10.60;;;23.40;64.20;;;;;;5007963;28;20030;-52
2023/06/20 06:57:26;;;;;;;16.73;10.50;;;23.30;64.30;;;;;;5007721;28;20082;-49
2023/06/20 06:59:52;;;;;;;14.25;11.18;;;23.30;64.30;;;;;;5007295;28;20038;-51
2023/06/20 07:02:18;;;;;;;19.95;12.60;;;23.40;64.10;;;;;;5046689;23;20103;-44
2023/06/20 07:04:44;;;;;;;22.23;14.70;;;23.40;64.10;;;;;;5028131;28;20101;-45
2023/06/20 07:07:10;;;;;;;21.90;15.90;;;23.40;64.50;;;;;;5027971;28;20064;-46
2023/06/20 07:09:36;;;;;;;23.10;15.85;;;23.40;64.50;;;;;;5026972;28;20458;-44
2023/06/20 07:12:07;;;;;;;21.63;16.17;;;23.50;64.40;;;;;;5028343;28;20087;-45
2023/06/20 07:14:33;;;;;;;19.60;15.68;;;23.50;64.40;;;;;;5027610;28;20053;-44
2023/06/20 07:16:59;;;;;;;21.25;16.45;;;23.50;64.30;;;;;;5027930;28;20452;-46
2023/06/20 07:19:25;;;;;;;22.73;14.93;;;23.50;64.30;;;;;;5027889;28;20018;-51
2023/06/20 07:21:51;;;;;;;18.98;14.00;;;23.40;64.10;;;;;;5026385;28;20447;-45
2023/06/20 07:24:17;;;;;;;22.58;16.83;;;23.40;64.20;;;;;;5028475;28;20037;-48
2023/06/20 07:26:43;;;;;;;22.73;19.33;;;23.40;64.30;;;;;;5029053;28;20074;-47
2023/06/20 07:29:08;;;;;;;19.95;16.40;;;23.50;64.50;;;;;;5031510;28;20028;-46
2023/06/20 07:31:34;;;;;;;23.05;17.38;;;23.50;64.40;;;;;;5030500;28;20064;-48
2023/06/20 07:34:00;;;;;;;24.23;18.17;;;23.50;64.70;;;;;;5030875;28;20021;-43
2023/06/20 07:36:26;;;;;;;22.20;17.98;;;23.40;64.60;;;;;;5031934;28;20025;-44
2023/06/20 07:38:52;;;;;;;21.67;17.60;;;23.50;64.80;;;;;;5031388;28;20564;-45
2023/06/20 07:41:17;;;;;;;22.65;17.65;;;23.50;64.70;;;;;;5031188;28;20384;-47
2023/06/20 07:43:43;;;;;;;22.20;18.25;;;23.50;65.00;;;;;;5031491;28;20045;-44
2023/06/20 07:46:09;;;;;;;24.10;19.45;;;23.50;65.80;;;;;;5031711;28;20392;-50
2023/06/20 07:48:35;;;;;;;24.10;20.23;;;23.50;66.10;;;;;;5031435;28;20025;-49
2023/06/20 07:51:01;;;;;;;30.02;21.58;;;23.50;66.10;;;;;;5031630;28;20032;-47
2023/06/20 07:53:27;;;;;;;28.58;20.13;;;23.60;66.20;;;;;;5029294;28;20392;-48
2023/06/20 07:55:56;;;;;;;27.83;23.85;;;23.60;65.80;;;;;;5030930;28;20409;-49
2023/06/20 07:58:22;;;;;;;26.63;21.05;;;23.60;66.40;;;;;;5031997;28;20384;-48
2023/06/20 08:00:47;;;;;;;22.88;20.45;;;23.70;66.40;;;;;;5030350;28;20030;-46
2023/06/20 08:03:14;;;;;;;30.85;21.83;;;23.70;66.40;;;;;;5031597;28;20033;-51
2023/06/20 08:05:39;;;;;;;36.83;26.45;;;23.70;65.80;;;;;;5030794;28;20030;-48
2023/06/20 08:17:26;;;;;;;33.97;23.30;;;23.70;67.10;;;;;;5028905;28;20538;-51
2023/06/20 08:28:25;;;;;;;39.97;23.30;;;23.70;66.80;;;;;;4999014;28;20226;-54
2023/06/20 08:30:51;;;;;;;42.08;23.63;;;23.70;66.90;;;;;;4985015;28;20060;-52
2023/06/20 08:33:19;;;;;;;49.47;24.15;;;23.70;66.80;;;;;;5002171;28;20034;-54
2023/06/20 08:35:45;;;;;;;40.47;22.40;;;23.70;66.70;;;;;;4992133;28;20401;-53
2023/06/20 08:38:10;;;;;;;36.85;22.88;;;23.70;66.60;;;;;;4988148;28;20038;-54
2023/06/20 08:40:36;;;;;;;34.25;25.35;;;23.70;66.70;;;;;;4989989;28;20014;-54
2023/06/20 08:43:03;;;;;;;39.33;22.15;;;23.70;66.20;;;;;;5000470;28;20423;-53
2023/06/20 08:45:28;;;;;;;38.50;24.02;;;23.80;66.50;;;;;;5007923;28;20068;-54
2023/06/20 08:47:58;;;;;;;39.25;23.25;;;23.80;66.50;;;;;;5007140;28;20493;-54
2023/06/20 08:50:28;;;;;;;37.35;21.70;;;23.80;66.40;;;;;;5009646;28;20108;-55
2023/06/20 08:52:58;;;;;;;37.97;22.67;;;23.80;66.40;;;;;;5009623;28;20034;-55
2023/06/20 08:55:24;;;;;;;34.75;22.88;;;23.80;66.40;;;;;;5009184;28;20040;-55
2023/06/20 08:57:51;;;;;;;40.50;22.35;;;23.80;66.40;;;;;;5008630;28;20493;-53
2023/06/20 09:00:21;;;;;;;32.63;22.98;;;23.80;66.40;;;;;;5008509;28;20141;-55
2023/06/20 09:02:48;;;;;;;31.65;21.85;;;23.80;66.40;;;;;;5008366;28;20034;-53
2023/06/20 09:05:14;;;;;;;34.33;23.33;;;23.80;66.40;;;;;;5007171;28;20083;-55
2023/06/20 09:07:41;;;;;;;32.15;21.77;;;23.80;66.40;;;;;;5007099;28;20108;-55
2023/06/20 09:10:17;;;;;;;36.58;23.73;;;23.80;66.30;;;;;;5007721;28;20053;-53
2023/06/20 09:12:56;;;;;;;33.42;21.88;;;23.80;66.30;;;;;;5007551;28;20060;-51
2023/06/20 09:15:25;;;;;;;33.37;22.47;;;23.80;66.40;;;;;;5007788;28;20018;-55
2023/06/20 09:17:56;;;;;;;33.17;22.15;;;23.70;67.00;;;;;;5007206;28;20118;-54
2023/06/20 09:20:26;;;;;;;33.67;22.30;;;23.70;66.50;;;;;;5007654;28;20100;-55
2023/06/20 09:22:52;;;;;;;33.50;21.98;;;23.70;66.50;;;;;;5009559;28;20789;-55
2023/06/20 09:25:24;;;;;;;34.88;22.08;;;23.70;66.60;;;;;;5009914;28;20031;-54
2023/06/20 09:27:51;;;;;;;33.45;22.15;;;23.70;66.60;;;;;;5009296;28;20025;-56
2023/06/20 09:30:17;;;;;;;33.53;22.38;;;23.70;66.70;;;;;;5009869;28;20197;-55
2023/06/20 09:32:43;;;;;;;33.00;20.70;;;23.80;66.70;;;;;;5009594;28;20022;-53
2023/06/20 09:35:11;;;;;;;30.80;21.65;;;23.80;66.70;;;;;;5009744;28;20072;-55
2023/06/20 09:37:45;;;;;;;29.52;21.58;;;23.80;66.80;;;;;;5008283;28;20446;-55
2023/06/20 09:40:13;;;;;;;31.42;21.52;;;23.80;66.70;;;;;;5008952;28;20707;-54
2023/06/20 09:42:40;;;;;;;26.27;20.75;;;23.80;66.90;;;;;;5009351;28;20064;-55
2023/06/20 09:45:08;;;;;;;32.53;20.73;;;23.80;67.00;;;;;;5006367;28;20405;-54
2023/06/20 09:47:36;;;;;;;28.38;21.65;;;23.80;67.50;;;;;;4991723;28;20026;-52
2023/06/20 09:50:15;;;;;;;38.58;23.67;;;23.70;68.30;;;;;;4990896;28;20113;-55
2023/06/20 09:53:01;;;;;;;37.08;21.83;;;23.80;69.70;;;;;;4991869;28;20034;-54
2023/06/20 09:55:30;;;;;;;39.10;22.80;;;23.70;72.60;;;;;;4992187;28;20034;-55
2023/06/20 09:57:59;;;;;;;30.50;22.23;;;23.80;71.60;;;;;;4991812;28;20108;-52
2023/06/20 10:00:27;;;;;;;23.25;20.33;;;23.70;71.60;;;;;;4991694;28;20494;-52
2023/06/20 10:02:54;;;;;;;23.85;19.85;;;23.70;69.10;;;;;;4991549;28;20573;-55
2023/06/20 10:05:21;;;;;;;30.75;20.67;;;23.70;68.70;;;;;;4991551;28;20037;-55
2023/06/20 10:07:48;;;;;;;26.52;21.67;;;23.80;68.80;;;;;;4997142;28;20093;-55
2023/06/20 10:10:16;;;;;;;29.25;20.45;;;23.70;69.40;;;;;;4997344;28;20022;-55
2023/06/20 10:12:45;;;;;;;23.35;19.77;;;23.70;69.40;;;;;;5003725;28;20022;-55
2023/06/20 10:15:14;;;;;;;30.52;20.10;;;23.80;69.30;;;;;;5001709;28;20026;-55
2023/06/20 10:17:42;;;;;;;23.50;20.30;;;23.70;69.40;;;;;;4997983;28;20033;-54
2023/06/20 10:20:23;;;;;;;24.42;20.67;;;23.70;69.80;;;;;;4988078;28;20045;-53
2023/06/20 10:22:49;;;;;;;25.15;20.40;;;23.80;70.10;;;;;;4993907;28;20037;-54
2023/06/20 10:25:17;;;;;;;27.63;20.88;;;23.70;70.20;;;;;;4991072;28;20030;-54
2023/06/20 10:27:54;;;;;;;24.70;20.65;;;23.80;71.00;;;;;;4991565;28;20030;-54
2023/06/20 10:33:15;;;;;;;28.73;21.10;;;23.80;71.40;;;;;;4996789;28;20114;-54
2023/06/20 10:35:48;;;;;;;25.80;20.00;;;23.70;71.80;;;;;;4999929;28;20202;-54
2023/06/20 10:38:14;;;;;;;23.88;19.88;;;23.70;72.00;;;;;;5004127;28;20025;-53
2023/06/20 10:40:40;;;;;;;23.25;20.80;;;23.70;72.00;;;;;;5010783;28;20419;-54
2023/06/20 10:43:18;;;;;;;25.98;20.98;;;23.70;72.60;;;;;;5005428;28;20440;-55
2023/06/20 10:45:59;;;;;;;30.83;21.90;;;23.70;72.90;;;;;;5013255;28;20033;-53
2023/06/20 10:48:26;;;;;;;26.77;19.92;;;23.80;73.20;;;;;;4998437;28;20137;-54
2023/06/20 10:51:01;;;;;;;32.50;21.25;;;23.70;73.40;;;;;;5004914;28;20068;-53
2023/06/20 10:53:28;;;;;;;26.00;20.63;;;23.80;73.70;;;;;;4999942;28;20550;-53
2023/06/20 10:55:53;;;;;;;24.50;21.08;;;23.70;74.00;;;;;;4998196;28;20104;-55
2023/06/20 10:58:19;;;;;;;25.42;19.63;;;23.70;73.90;;;;;;5000025;28;20436;-54
2023/06/20 11:00:45;;;;;;;27.20;20.08;;;23.70;74.00;;;;;;5004042;28;20049;-54
2023/06/20 11:03:11;;;;;;;22.90;19.17;;;23.70;73.70;;;;;;5008194;28;20021;-51
2023/06/20 11:05:37;;;;;;;26.25;19.92;;;23.70;73.50;;;;;;5011913;28;20037;-53
2023/06/20 11:08:09;;;;;;;24.77;19.08;;;23.70;73.40;;;;;;5004243;28;20084;-53
2023/06/20 11:10:37;;;;;;;29.65;20.30;;;23.70;73.10;;;;;;5003940;28;20416;-53
2023/06/20 11:13:06;;;;;;;25.13;18.92;;;23.70;73.10;;;;;;5006362;28;20033;-54
2023/06/20 11:15:36;;;;;;;;;;;23.70;73.00;;;;;;5010917;28;20030;-52
2023/06/20 11:18:09;;;;;;;21.85;19.50;;;23.70;72.90;;;;;;5004953;28;19940;-51
2023/06/20 11:20:39;;;;;;;21.73;17.38;;;23.80;72.80;;;;;;5006905;28;20040;-55
2023/06/20 11:23:12;;;;;;;27.20;17.35;;;23.70;72.60;;;;;;5007033;28;20131;-54
2023/06/20 11:25:39;;;;;;;25.10;17.90;;;23.70;72.60;;;;;;5006787;28;20087;-56
2023/06/20 11:28:14;;;;;;;24.50;17.92;;;23.70;72.50;;;;;;5006651;28;20042;-54
2023/06/20 11:30:46;;;;;;;21.70;17.58;;;23.70;72.50;;;;;;5006492;28;20493;-52
2023/06/20 11:33:13;;;;;;;24.30;17.00;;;23.70;72.40;;;;;;5006089;28;20026;-55
2023/06/20 11:35:42;;;;;;;22.90;16.80;;;23.70;72.20;;;;;;4996563;28;20026;-54
2023/06/20 11:38:10;;;;;;;23.77;18.27;;;23.70;72.20;;;;;;4990248;28;20489;-55
2023/06/20 11:40:37;;;;;;;22.67;17.20;;;23.70;72.00;;;;;;5007001;28;20028;-55
2023/06/20 11:43:03;;;;;;;26.17;17.63;;;23.70;72.20;;;;;;5008510;28;20025;-45
2023/06/20 11:45:29;;;;;;;25.52;17.95;;;23.80;72.50;;;;;;5007714;28;20524;-52
2023/06/20 11:48:28;;;;;;;23.63;17.65;;;23.80;72.40;;;;;;5008206;28;20033;-46
2023/06/20 11:50:56;;;;;;;21.98;17.60;;;23.80;72.20;;;;;;4974201;28;20039;-46
2023/06/20 11:53:25;;;;;;;19.65;17.00;;;23.80;72.40;;;;;;4980581;28;20042;-49
2023/06/20 11:55:58;;;;;;;20.17;16.73;;;23.80;72.50;;;;;;4974682;28;20031;-50
2023/06/20 11:58:26;;;;;;;20.80;16.35;;;23.80;72.50;;;;;;4980721;28;20189;-47
2023/06/20 12:01:20;;;;;;;19.48;16.17;;;23.80;72.30;;;;;;4973479;28;20042;-45
2023/06/20 12:04:12;;;;;;;21.58;16.77;;;23.90;72.00;;;;;;4969374;28;20066;-46
2023/06/20 12:06:39;;;;;;;27.45;16.95;;;23.80;71.90;;;;;;4966282;28;20045;-45
2023/06/20 12:09:13;;;;;;;23.30;17.73;;;23.80;72.30;;;;;;4966387;28;20034;-45
2023/06/20 12:11:46;;;;;;;26.17;17.17;;;23.80;72.40;;;;;;4966301;28;20030;-53
2023/06/20 12:14:14;;;;;;;26.02;17.70;;;23.80;72.40;;;;;;4968906;28;20591;-50
2023/06/20 12:16:41;;;;;;;26.20;16.98;;;23.80;72.10;;;;;;4969209;28;20038;-47
2023/06/20 12:19:06;;;;;;;30.30;18.42;;;23.80;72.40;;;;;;4969380;28;20079;-47
2023/06/20 12:21:32;;;;;;;26.50;17.55;;;23.80;72.20;;;;;;4968284;28;20027;-49
2023/06/20 12:23:58;;;;;;;26.58;16.45;;;23.80;72.10;;;;;;4970042;28;20073;-50
2023/06/20 12:26:24;;;;;;;22.92;16.42;;;23.80;72.00;;;;;;4988963;28;20054;-49
2023/06/20 12:28:50;;;;;;;19.73;16.45;;;23.80;71.90;;;;;;5011336;28;20057;-48
2023/06/20 12:31:16;;;;;;;23.92;16.58;;;23.80;71.80;;;;;;5011534;28;20508;-49
2023/06/20 12:33:41;;;;;;;19.50;16.02;;;23.80;71.70;;;;;;5011063;28;20045;-48
2023/06/20 12:36:08;;;;;;;21.30;16.75;;;23.80;71.70;;;;;;5011666;28;20026;-49
2023/06/20 12:38:34;;;;;;;21.98;16.02;;;23.80;71.50;;;;;;5011281;28;20566;-50
2023/06/20 12:41:01;;;;;;;22.73;15.40;;;23.80;71.50;;;;;;5011197;28;20109;-52
2023/06/20 12:43:26;;;;;;;20.85;15.95;;;23.70;71.30;;;;;;5011283;28;20022;-51
2023/06/20 12:45:52;;;;;;;21.10;15.20;;;23.70;71.30;;;;;;5011087;28;20452;-52
2023/06/20 12:48:18;;;;;;;19.98;15.10;;;23.80;71.20;;;;;;5010976;28;20500;-53
2023/06/20 12:50:44;;;;;;;20.73;15.52;;;23.70;71.00;;;;;;5011164;28;20432;-54
2023/06/20 12:53:10;;;;;;;20.85;15.02;;;23.70;71.00;;;;;;5011462;28;20022;-47
2023/06/20 12:55:36;;;;;;;20.33;14.82;;;23.80;71.10;;;;;;5009765;28;20026;-51